Time;durP1;ratioP1;P1;durP2;ratioP2;P2;SDS_P1;SDS_P2;PMS_P1;PMS_P2;Temp;Humidity;BMP_temperature;BMP_pressure;BME280_temperature;BME280_humidity;BME280_pressure;Samples;Min_cycle;Max_cycle;Signal;HPM_P1;HPM_P2
2022/04/06 00:00:31;;;;;;;9.30;8.27;;;;;;;11.89;49.97;94153.88;5065145;28;20437;-74
2022/04/06 00:02:58;;;;;;;13.90;9.53;;;;;;;11.79;50.56;94150.91;5066240;28;20163;-74
2022/04/06 00:05:24;;;;;;;13.83;8.63;;;;;;;11.83;49.68;94152.06;5066330;28;20492;-75
2022/04/06 00:07:49;;;;;;;9.93;8.93;;;;;;;11.80;49.95;94155.13;5051984;28;20421;-74
2022/04/06 00:10:15;;;;;;;9.50;8.60;;;;;;;11.45;50.51;94155.56;5046273;28;20212;-75
2022/04/06 00:12:41;;;;;;;13.07;9.00;;;;;;;11.49;50.90;94156.75;5046514;28;20214;-75
2022/04/06 00:15:10;;;;;;;8.83;7.93;;;;;;;11.92;49.97;94152.66;5046026;28;20452;-74
2022/04/06 00:17:36;;;;;;;10.13;8.83;;;;;;;11.98;49.93;94140.50;5046003;28;20434;-75
2022/04/06 00:20:03;;;;;;;9.47;8.57;;;;;;;11.85;49.77;94150.03;5046226;28;20422;-74
2022/04/06 00:22:28;;;;;;;10.00;7.97;;;;;;;11.72;50.00;94144.91;5046275;28;20414;-74
2022/04/06 00:24:53;;;;;;;13.53;8.87;;;;;;;11.57;49.95;94152.28;5045983;28;20895;-75
2022/04/06 00:27:19;;;;;;;10.17;8.70;;;;;;;11.42;50.97;94150.78;5065176;28;20215;-74
2022/04/06 00:29:44;;;;;;;9.37;8.37;;;;;;;11.24;51.15;94150.69;5065791;28;20562;-74
2022/04/06 00:32:10;;;;;;;11.03;9.37;;;;;;;11.20;51.18;94154.72;5066145;28;20171;-74
2022/04/06 00:37:20;;;;;;;11.13;9.97;;;;;;;11.19;50.60;94158.34;5065850;28;20446;-75
2022/04/06 00:39:45;;;;;;;10.90;9.03;;;;;;;11.05;50.70;94152.38;5064352;28;20487;-74
2022/04/06 00:42:11;;;;;;;10.93;9.83;;;;;;;11.06;50.31;94157.41;5065640;28;20167;-74
2022/04/06 00:44:37;;;;;;;12.17;10.43;;;;;;;11.03;49.90;94160.44;5065706;28;20202;-74
2022/04/06 00:47:04;;;;;;;13.47;9.77;;;;;;;11.16;50.00;94158.78;5065547;28;20196;-74
2022/04/06 00:49:30;;;;;;;14.40;10.90;;;;;;;11.13;49.62;94163.44;5055447;28;20535;-75
2022/04/06 00:51:56;;;;;;;10.17;9.13;;;;;;;11.13;49.91;94165.22;5065366;28;20439;-74
2022/04/06 00:54:22;;;;;;;10.37;8.53;;;;;;;11.15;49.88;94160.56;5065477;28;20231;-75
2022/04/06 00:56:49;;;;;;;11.00;9.90;;;;;;;11.34;49.34;94164.09;5065769;28;20412;-74
2022/04/06 00:59:19;;;;;;;12.07;10.00;;;;;;;11.40;49.31;94159.84;5065537;28;20425;-74
2022/04/06 01:01:49;;;;;;;8.70;7.63;;;;;;;11.16;49.45;94164.81;5065070;28;20484;-74
2022/04/06 01:04:16;;;;;;;11.90;8.97;;;;;;;10.99;49.81;94161.09;5065633;28;20966;-74
2022/04/06 01:06:42;;;;;;;8.27;7.43;;;;;;;10.38;51.06;94170.94;5065518;28;20416;-74
2022/04/06 01:09:08;;;;;;;10.87;7.90;;;;;;;10.41;50.90;94167.09;5065222;28;20457;-74
2022/04/06 01:11:34;;;;;;;10.87;9.77;;;;;;;10.65;50.69;94168.25;5065212;28;20416;-74
2022/04/06 01:14:01;;;;;;;8.20;7.40;;;;;;;10.65;50.38;94163.81;5065266;28;20421;-74
2022/04/06 01:16:26;;;;;;;10.67;9.57;;;;;;;10.71;50.07;94165.59;5063758;28;20195;-74
2022/04/06 01:18:52;;;;;;;10.60;7.67;;;;;;;10.72;50.59;94169.84;5068247;28;20415;-75
2022/04/06 01:21:17;;;;;;;10.90;8.03;;;;;;;10.72;50.76;94163.81;5063872;28;20175;-75
2022/04/06 01:23:44;;;;;;;9.47;8.40;;;;;;;10.75;50.81;94172.03;5069460;28;20166;-74
2022/04/06 01:26:10;;;;;;;9.30;8.20;;;;;;;10.73;50.78;94166.19;5068186;28;20174;-74
2022/04/06 01:28:39;;;;;;;10.90;8.03;;;;;;;10.77;50.83;94157.94;5069051;28;20528;-74
2022/04/06 01:31:05;;;;;;;11.53;8.30;;;;;;;10.64;50.75;94164.03;5068796;28;20437;-74
2022/04/06 01:33:31;;;;;;;10.30;8.47;;;;;;;10.86;50.04;94165.34;5067615;28;20416;-75
2022/04/06 01:35:58;;;;;;;10.73;8.60;;;;;;;10.88;49.88;94162.53;5069497;28;20422;-74
2022/04/06 01:38:25;;;;;;;9.73;8.73;;;;;;;10.79;50.69;94150.69;5067655;28;20173;-75
2022/04/06 01:40:53;;;;;;;9.10;8.30;;;;;;;11.25;48.61;94150.47;5068022;28;20440;-75
2022/04/06 01:43:20;;;;;;;10.67;8.33;;;;;;;10.53;50.28;94155.03;5069193;28;20401;-75
2022/04/06 01:45:46;;;;;;;8.07;7.20;;;;;;;10.64;51.06;94157.00;5069243;28;20440;-75
2022/04/06 01:48:14;;;;;;;9.57;8.67;;;;;;;10.85;50.11;94162.94;5068833;28;20417;-75
2022/04/06 01:53:23;;;;;;;11.50;9.37;;;;;;;10.59;50.43;94163.84;5068710;28;20400;-75
2022/04/06 01:55:48;;;;;;;10.93;8.10;;;;;;;10.92;49.94;94161.09;5049931;28;20414;-75
2022/04/06 01:58:14;;;;;;;9.73;7.80;;;;;;;10.59;50.15;94163.84;5048562;28;20680;-76
2022/04/06 02:00:40;;;;;;;10.07;7.40;;;;;;;10.59;50.99;94163.84;5048566;28;20175;-74
2022/04/06 02:03:06;;;;;;;9.63;8.20;;;;;;;10.54;51.33;94167.06;5048711;28;20160;-74
2022/04/06 02:05:33;;;;;;;9.90;7.93;;;;;;;10.48;51.01;94162.66;5080700;28;20517;-74
2022/04/06 02:07:59;;;;;;;8.97;8.07;;;;;;;10.50;50.66;94171.13;5048733;28;20278;-74
2022/04/06 02:10:26;;;;;;;14.30;8.60;;;;;;;10.70;50.16;94166.63;5080618;28;20453;-74
2022/04/06 02:12:54;;;;;;;9.37;7.77;;;;;;;10.43;51.90;94180.78;5047133;28;20925;-74
2022/04/06 02:15:20;;;;;;;12.47;8.37;;;;;;;10.32;51.99;94177.81;5048419;28;20426;-75
2022/04/06 02:17:46;;;;;;;10.70;7.90;;;;;;;10.18;52.20;94177.97;5048342;28;20473;-74
2022/04/06 02:20:12;;;;;;;13.20;8.67;;;;;;;10.27;51.51;94177.56;5053539;28;20182;-74
2022/04/06 02:22:38;;;;;;;10.87;9.47;;;;;;;10.36;51.36;94180.81;5066989;28;20489;-74
2022/04/06 02:25:04;;;;;;;8.67;7.80;;;;;;;10.33;51.97;94175.97;5068172;28;20425;-74
2022/04/06 02:27:30;;;;;;;9.00;7.80;;;;;;;10.34;51.35;94183.63;5066412;28;20744;-74
2022/04/06 02:29:55;;;;;;;9.70;8.10;;;;;;;10.37;51.91;94177.16;5067101;28;20468;-75
2022/04/06 02:32:21;;;;;;;8.27;7.30;;;;;;;10.23;51.68;94181.59;5068019;28;20225;-74
2022/04/06 02:34:47;;;;;;;8.33;7.53;;;;;;;9.92;52.30;94177.81;5067863;28;20250;-74
2022/04/06 02:37:12;;;;;;;11.20;7.70;;;;;;;9.99;52.11;94184.84;5068072;28;20177;-74
2022/04/06 02:39:38;;;;;;;11.13;6.03;;;;;;;10.39;50.64;94190.06;5066108;28;20175;-74
2022/04/06 02:42:04;;;;;;;6.83;6.10;;;;;;;10.10;51.05;94181.63;5067791;28;20202;-74
2022/04/06 02:44:31;;;;;;;10.30;7.30;;;;;;;10.09;51.45;94185.22;5068284;28;20175;-74
2022/04/06 02:46:56;;;;;;;6.53;6.03;;;;;;;10.00;51.73;94181.19;5066660;28;20171;-74
2022/04/06 02:49:22;;;;;;;10.57;6.40;;;;;;;10.63;50.08;94186.78;5065583;28;20479;-74
2022/04/06 02:51:47;;;;;;;10.97;6.67;;;;;;;10.21;51.35;94190.66;5066552;28;20174;-74
2022/04/06 02:54:13;;;;;;;7.40;6.70;;;;;;;10.09;52.04;94187.84;5062315;28;20180;-75
2022/04/06 02:56:38;;;;;;;9.10;6.57;;;;;;;10.08;52.24;94194.09;5047665;28;20202;-74
2022/04/06 02:59:04;;;;;;;6.93;6.10;;;;;;;10.07;52.44;94192.47;5047249;28;20464;-74
2022/04/06 03:01:30;;;;;;;7.80;7.00;;;;;;;10.00;51.50;94194.28;5047408;28;20171;-74
2022/04/06 03:03:55;;;;;;;10.00;7.23;;;;;;;10.05;51.56;94197.88;5047342;28;20606;-74
2022/04/06 03:06:21;;;;;;;14.33;6.50;;;;;;;10.08;52.17;94199.31;5047316;28;20403;-74
2022/04/06 03:08:46;;;;;;;6.57;5.90;;;;;;;10.21;51.44;94203.75;5046850;28;20195;-75
2022/04/06 03:11:12;;;;;;;6.20;5.47;;;;;;;9.98;51.42;94194.50;5047016;28;20167;-74
2022/04/06 03:13:38;;;;;;;6.30;5.53;;;;;;;10.27;50.86;94198.47;5047378;28;20171;-75
2022/04/06 03:16:04;;;;;;;11.20;6.47;;;;;;;10.08;50.89;94196.69;5047124;28;20174;-74
2022/04/06 03:18:29;;;;;;;7.40;6.17;;;;;;;10.25;51.09;94199.72;5047069;28;20464;-75
2022/04/06 03:20:55;;;;;;;7.87;6.60;;;;;;;10.11;52.14;94198.91;5053120;28;20430;-74
2022/04/06 03:23:21;;;;;;;8.30;6.60;;;;;;;9.99;51.98;94200.53;5047117;28;20217;-75
2022/04/06 03:25:48;;;;;;;8.53;6.70;;;;;;;10.22;51.51;94203.50;5045626;28;20170;-75
2022/04/06 03:28:13;;;;;;;11.67;7.83;;;;;;;10.15;51.33;94203.53;5046778;28;20465;-74
2022/04/06 03:30:39;;;;;;;7.10;6.40;;;;;;;9.64;52.21;94204.13;5047070;28;20485;-74
2022/04/06 03:33:05;;;;;;;7.33;6.70;;;;;;;9.72;53.24;94214.38;5047080;28;20238;-74
2022/04/06 03:35:31;;;;;;;15.33;8.17;;;;;;;9.74;53.52;94209.75;5046739;28;20179;-75
2022/04/06 03:37:57;;;;;;;16.07;8.90;;;;;;;9.84;52.82;94213.78;5046425;28;20422;-75
2022/04/06 03:40:22;;;;;;;11.13;8.00;;;;;;;9.90;52.53;94215.59;5046555;28;20190;-74
2022/04/06 03:42:48;;;;;;;14.90;8.77;;;;;;;10.01;51.52;94206.34;5046926;28;20237;-74
2022/04/06 03:45:13;;;;;;;9.93;8.93;;;;;;;9.97;52.30;94209.34;5078823;28;20202;-74
2022/04/06 03:47:44;;;;;;;12.30;8.83;;;;;;;9.74;52.53;94216.78;5045190;28;20207;-74
2022/04/06 03:50:10;;;;;;;10.80;8.20;;;;;;;9.74;52.38;94219.41;5046728;28;20230;-75
2022/04/06 03:52:35;;;;;;;8.47;7.67;;;;;;;9.72;52.79;94229.25;5068014;28;20419;-75
2022/04/06 03:55:01;;;;;;;9.90;8.23;;;;;;;9.87;52.21;94223.84;5074423;28;20181;-74
2022/04/06 03:57:26;;;;;;;14.10;7.90;;;;;;;9.71;53.29;94230.25;5066261;28;20244;-74
2022/04/06 03:59:53;;;;;;;12.43;8.43;;;;;;;9.49;53.17;94230.41;5066553;28;20262;-75
2022/04/06 04:02:19;;;;;;;11.37;8.33;;;;;;;9.66;53.06;94235.28;5066533;28;20213;-74
2022/04/06 04:04:44;;;;;;;11.10;8.80;;;;;;;9.47;53.29;94235.03;5066264;28;20439;-74
2022/04/06 04:07:09;;;;;;;13.10;9.10;;;;;;;9.72;53.04;94237.09;5065535;28;20677;-74
2022/04/06 04:09:38;;;;;;;11.83;8.80;;;;;;;9.65;52.19;94242.28;5065937;28;20195;-74
2022/04/06 04:12:04;;;;;;;13.03;10.13;;;;;;;9.57;53.06;94242.50;5065889;28;20700;-74
2022/04/06 04:14:32;;;;;;;12.13;8.30;;;;;;;9.67;53.28;94244.72;5064744;28;20440;-74
2022/04/06 04:16:58;;;;;;;11.10;10.00;;;;;;;9.55;53.33;94244.50;5065983;28;20401;-74
2022/04/06 04:19:23;;;;;;;15.83;10.17;;;;;;;9.84;52.45;94245.94;5066276;28;20421;-74
2022/04/06 04:21:49;;;;;;;17.13;9.13;;;;;;;10.04;52.59;94245.16;5066110;28;20535;-75
2022/04/06 04:24:14;;;;;;;13.13;8.90;;;;;;;9.91;52.24;94249.38;5065695;28;20179;-74
2022/04/06 04:26:40;;;;;;;9.90;8.90;;;;;;;9.95;52.86;94247.97;5059874;28;20254;-74
2022/04/06 04:29:07;;;;;;;11.53;9.33;;;;;;;10.01;52.44;94250.78;5045779;28;20266;-75
2022/04/06 04:31:33;;;;;;;17.53;9.87;;;;;;;10.03;52.49;94251.38;5045620;28;20175;-74
2022/04/06 04:33:59;;;;;;;21.77;10.83;;;;;;;10.01;52.53;94256.81;5045593;28;20426;-75
2022/04/06 04:36:24;;;;;;;16.47;11.73;;;;;;;9.91;52.26;94262.44;5045476;28;20402;-75
2022/04/06 04:38:50;;;;;;;21.60;10.93;;;;;;;9.82;52.38;94265.44;5045111;28;20247;-74
2022/04/06 04:41:16;;;;;;;18.93;10.93;;;;;;;9.90;53.10;94262.63;5045850;28;20163;-74
2022/04/06 04:43:42;;;;;;;13.57;10.80;;;;;;;9.95;52.54;94268.88;5045371;28;20178;-74
2022/04/06 04:46:07;;;;;;;18.30;10.57;;;;;;;10.13;52.95;94270.09;5045353;28;20433;-74
2022/04/06 04:48:33;;;;;;;15.47;11.17;;;;;;;10.20;52.27;94278.75;5045284;28;20215;-74
2022/04/06 04:50:59;;;;;;;20.07;12.77;;;;;;;10.27;52.08;94276.94;5044193;28;20178;-74
2022/04/06 04:53:25;;;;;;;17.10;12.50;;;;;;;10.26;50.82;94280.56;5080110;28;20542;-74
2022/04/06 04:55:52;;;;;;;15.10;12.17;;;;;;;10.43;50.90;94280.19;5066206;28;20197;-74
2022/04/06 04:58:18;;;;;;;18.73;13.40;;;;;;;10.40;50.12;94285.84;5063967;28;20244;-75
2022/04/06 05:00:43;;;;;;;24.43;16.27;;;;;;;10.49;50.12;94284.59;5065375;28;20409;-75
2022/04/06 05:03:09;;;;;;;16.53;13.93;;;;;;;10.58;50.00;94293.06;5060446;28;20175;-74
2022/04/06 05:05:35;;;;;;;17.80;14.57;;;;;;;10.61;49.24;94298.69;5045588;28;20312;-75
2022/04/06 05:08:01;;;;;;;34.73;16.03;;;;;;;10.69;49.14;94306.31;5044967;28;20175;-74
2022/04/06 05:10:26;;;;;;;25.30;15.70;;;;;;;10.62;48.60;94308.13;5044316;28;20496;-74
2022/04/06 05:12:53;;;;;;;18.97;13.93;;;;;;;10.55;49.59;94316.00;5043499;28;20207;-74
2022/04/06 05:15:19;;;;;;;22.23;15.27;;;;;;;10.65;49.05;94312.97;5060508;28;20509;-74
2022/04/06 05:17:45;;;;;;;26.20;16.20;;;;;;;10.89;48.35;94316.78;5044929;28;20411;-74
2022/04/06 05:20:11;;;;;;;18.07;16.10;;;;;;;10.99;47.81;94315.56;5045325;28;20436;-74
2022/04/06 05:22:37;;;;;;;20.67;16.30;;;;;;;10.87;47.54;94317.97;5045053;28;20461;-74
2022/04/06 05:25:10;;;;;;;18.70;16.07;;;;;;;11.21;47.24;94318.69;5058263;28;20442;-74
2022/04/06 05:27:49;;;;;;;23.47;16.30;;;;;;;11.21;47.28;94324.75;5044810;28;20464;-74
2022/04/06 05:30:16;;;;;;;31.30;16.70;;;;;;;11.44;47.31;94318.22;5045403;28;20458;-74
2022/04/06 05:32:43;;;;;;;17.10;15.23;;;;;;;11.55;46.89;94320.19;5044966;28;20417;-74
2022/04/06 05:35:09;;;;;;;25.77;17.20;;;;;;;11.70;46.48;94322.53;5060422;28;20437;-74
2022/04/06 05:37:36;;;;;;;23.20;16.57;;;;;;;11.65;46.19;94314.53;5045432;28;20401;-74
2022/04/06 05:40:03;;;;;;;25.50;16.23;;;;;;;11.79;46.09;94323.91;5045321;28;20410;-75
2022/04/06 05:42:28;;;;;;;27.00;17.37;;;;;;;11.43;47.03;94327.91;5045284;28;20413;-74
2022/04/06 05:44:54;;;;;;;22.53;17.90;;;;;;;11.60;46.99;94327.44;5044994;28;20441;-75
2022/04/06 05:47:19;;;;;;;30.90;19.13;;;;;;;11.72;46.06;94325.75;5044836;28;20172;-74
2022/04/06 05:49:45;;;;;;;24.67;18.93;;;;;;;11.87;45.76;94331.53;5059817;28;20262;-75
2022/04/06 05:52:10;;;;;;;24.43;17.07;;;;;;;12.33;44.27;94334.13;5057822;28;20167;-74
2022/04/06 05:54:36;;;;;;;23.40;17.17;;;;;;;12.70;44.20;94333.22;5054206;28;20178;-75
2022/04/06 05:57:02;;;;;;;19.83;17.63;;;;;;;12.54;43.39;94333.78;5065050;28;20193;-74
2022/04/06 05:59:28;;;;;;;24.27;17.20;;;;;;;12.57;43.77;94328.06;5063501;28;20768;-74
2022/04/06 06:01:53;;;;;;;27.10;18.00;;;;;;;12.43;43.28;94337.09;5064999;28;20415;-75
2022/04/06 06:04:19;;;;;;;26.97;18.27;;;;;;;12.99;43.21;94338.81;5060029;28;20254;-74
2022/04/06 06:06:44;;;;;;;22.97;17.30;;;;;;;13.37;42.23;94342.31;5048238;28;20201;-74
2022/04/06 06:09:10;;;;;;;26.73;19.33;;;;;;;13.11;42.39;94338.09;5048116;28;20785;-74
2022/04/06 06:11:37;;;;;;;25.93;17.37;;;;;;;12.72;42.57;94340.09;5047361;28;20234;-74
2022/04/06 06:14:03;;;;;;;23.80;18.33;;;;;;;13.36;40.85;94344.16;5049289;28;20191;-75
2022/04/06 06:16:29;;;;;;;24.50;17.20;;;;;;;13.55;40.74;94350.22;5048257;28;20406;-74
2022/04/06 06:18:55;;;;;;;24.50;16.07;;;;;;;13.66;41.42;94348.69;5048075;28;20218;-74
2022/04/06 06:21:21;;;;;;;19.97;12.90;;;;;;;13.67;41.36;94343.19;5048180;28;20168;-75
2022/04/06 06:23:47;;;;;;;20.17;13.93;;;;;;;13.53;41.61;94347.00;5058517;28;20440;-74
2022/04/06 06:26:13;;;;;;;13.90;12.50;;;;;;;14.18;40.13;94340.31;5068325;28;20444;-75
2022/04/06 06:28:39;;;;;;;21.83;12.83;;;;;;;13.77;39.74;94342.69;5068078;28;20703;-75
2022/04/06 06:31:05;;;;;;;20.70;12.07;;;;;;;13.79;40.71;94340.63;5067954;28;20420;-74
2022/04/06 06:33:30;;;;;;;28.33;12.27;;;;;;;14.00;40.15;94339.34;5066074;28;20524;-74
2022/04/06 06:35:56;;;;;;;17.33;12.67;;;;;;;13.89;40.67;94337.47;5068118;28;20622;-75
2022/04/06 06:38:21;;;;;;;22.40;13.00;;;;;;;13.88;41.28;94329.78;5066615;28;20182;-74
2022/04/06 06:40:48;;;;;;;15.60;12.10;;;;;;;14.18;40.25;94332.41;5066515;28;20174;-75
2022/04/06 06:43:14;;;;;;;19.83;14.37;;;;;;;14.15;41.16;94333.69;5061795;28;20191;-75
2022/04/06 06:45:40;;;;;;;14.47;10.67;;;;;;;14.57;40.33;94331.06;5047776;28;20429;-74
2022/04/06 06:48:06;;;;;;;16.40;11.43;;;;;;;14.47;40.93;94330.75;5047479;28;20414;-74
2022/04/06 06:50:31;;;;;;;14.27;10.90;;;;;;;14.36;41.46;94329.72;5067676;28;20254;-74
2022/04/06 06:52:57;;;;;;;11.23;9.90;;;;;;;14.51;40.82;94325.84;5078664;28;20450;-75
2022/04/06 06:55:23;;;;;;;19.93;10.03;;;;;;;14.74;40.72;94325.09;5052095;28;20188;-75
2022/04/06 06:57:49;;;;;;;17.20;10.33;;;;;;;14.57;39.67;94325.78;5047593;28;20482;-74
2022/04/06 07:00:15;;;;;;;11.37;10.27;;;;;;;14.87;39.42;94322.25;5048122;28;20815;-75
2022/04/06 07:02:41;;;;;;;14.60;10.93;;;;;;;14.96;39.50;94326.16;5047345;28;20176;-74
2022/04/06 07:05:08;;;;;;;11.20;10.00;;;;;;;15.08;39.07;94320.91;5047749;28;20433;-74
2022/04/06 07:07:56;;;;;;;13.83;11.50;;;;;;;15.03;38.98;94316.31;5062664;28;20453;-74
2022/04/06 07:10:23;;;;;;;15.23;12.80;;;;;;;14.89;38.92;94325.50;5047421;28;20955;-74
2022/04/06 07:12:49;;;;;;;15.73;11.27;;;;;;;14.58;40.19;94324.75;5046866;28;20441;-75
2022/04/06 07:15:14;;;;;;;15.90;12.60;;;;;;;14.33;40.33;94330.16;5046904;28;20432;-74
2022/04/06 07:17:40;;;;;;;16.70;13.70;;;;;;;14.37;40.51;94330.53;5046881;28;20642;-74
2022/04/06 07:20:06;;;;;;;20.47;13.40;;;;;;;15.06;39.02;94330.06;5046368;28;20191;-75
2022/04/06 07:22:32;;;;;;;17.03;11.63;;;;;;;15.46;38.20;94332.78;5053964;28;20197;-74
2022/04/06 07:24:57;;;;;;;15.93;14.27;;;;;;;15.02;38.86;94333.16;5067194;28;20417;-74
2022/04/06 07:27:22;;;;;;;13.70;12.27;;;;;;;15.20;38.87;94334.06;5066725;28;20301;-74
2022/04/06 07:29:48;;;;;;;12.93;11.83;;;;;;;15.28;38.50;94328.44;5066829;28;20262;-74
2022/04/06 07:32:13;;;;;;;18.23;12.27;;;;;;;15.79;37.39;94328.72;5066354;28;20182;-75
2022/04/06 07:34:39;;;;;;;18.10;12.60;;;;;;;15.58;38.15;94323.00;5067345;28;20246;-75
2022/04/06 07:37:04;;;;;;;11.53;10.33;;;;;;;15.81;37.62;94331.91;5065262;28;20189;-74
2022/04/06 07:39:30;;;;;;;18.33;9.57;;;;;;;16.14;36.91;94328.59;5065483;28;20192;-75
2022/04/06 07:41:56;;;;;;;17.10;10.87;;;;;;;16.35;36.50;94323.63;5066696;28;20166;-75
2022/04/06 07:44:25;;;;;;;15.33;10.97;;;;;;;16.61;35.95;94324.06;5065652;28;20198;-74
2022/04/06 07:46:51;;;;;;;12.07;10.70;;;;;;;17.01;35.57;94320.50;5066805;28;20462;-75
2022/04/06 07:49:17;;;;;;;14.00;12.07;;;;;;;16.91;35.65;94329.88;5055643;28;20566;-75
2022/04/06 07:51:43;;;;;;;12.10;9.90;;;;;;;16.68;35.75;94327.38;5061280;28;20177;-74
2022/04/06 07:54:09;;;;;;;18.93;10.87;;;;;;;16.90;35.83;94324.81;5079910;28;20429;-74
2022/04/06 07:56:34;;;;;;;11.97;10.40;;;;;;;17.28;35.33;94318.78;5066354;28;20443;-74
2022/04/06 07:59:00;;;;;;;14.30;11.80;;;;;;;16.49;36.49;94324.16;5066678;28;20167;-75
2022/04/06 08:01:27;;;;;;;13.13;10.80;;;;;;;17.24;35.83;94330.84;5059870;28;20202;-75
2022/04/06 08:03:53;;;;;;;19.13;12.60;;;;;;;16.73;35.93;94320.31;5046356;28;20184;-75
2022/04/06 08:06:19;;;;;;;11.43;9.90;;;;;;;17.66;34.66;94322.44;5046281;28;20425;-74
2022/04/06 08:08:44;;;;;;;11.10;10.10;;;;;;;18.00;34.07;94324.94;5046002;28;20217;-74
2022/04/06 08:11:10;;;;;;;13.50;10.70;;;;;;;18.38;33.31;94323.19;5045737;28;20674;-74
2022/04/06 08:13:35;;;;;;;13.63;10.90;;;;;;;18.75;32.85;94317.16;5045699;28;20179;-75
2022/04/06 08:16:01;;;;;;;12.50;11.20;;;;;;;19.08;32.21;94320.59;5045727;28;20176;-74
2022/04/06 08:18:26;;;;;;;11.80;10.70;;;;;;;18.76;32.39;94317.97;5046081;28;20172;-75
2022/04/06 08:20:52;;;;;;;13.43;9.83;;;;;;;19.15;31.89;94315.09;5056184;28;20262;-74
2022/04/06 08:23:21;;;;;;;14.27;10.73;;;;;;;19.03;31.63;94317.94;5066168;28;20167;-75
2022/04/06 08:25:58;;;;;;;14.53;9.37;;;;;;;19.01;31.85;94310.22;5055245;28;20178;-75
2022/04/06 08:28:24;;;;;;;16.87;9.93;;;;;;;18.96;31.77;94307.53;5096355;28;20480;-75
2022/04/06 08:30:49;;;;;;;12.13;9.77;;;;;;;19.09;31.58;94317.69;5054056;28;20462;-75
2022/04/06 08:33:15;;;;;;;18.37;9.93;;;;;;;19.13;31.75;94312.69;5045650;28;20178;-76
2022/04/06 08:35:42;;;;;;;13.27;8.70;;;;;;;19.02;31.43;94314.47;5045801;28;20210;-74
2022/04/06 08:38:11;;;;;;;11.70;8.90;;;;;;;19.98;30.34;94317.91;5045501;28;20183;-75
2022/04/06 08:40:37;;;;;;;12.93;8.87;;;;;;;19.43;30.96;94311.28;5044367;28;20833;-74
2022/04/06 08:43:04;;;;;;;12.53;8.23;;;;;;;20.18;29.85;94308.38;5045664;28;20418;-75
2022/04/06 08:45:32;;;;;;;11.90;9.73;;;;;;;19.79;30.46;94308.81;5045499;28;20418;-74
2022/04/06 08:47:59;;;;;;;13.33;9.07;;;;;;;19.61;30.72;94313.47;5045654;28;20414;-74
2022/04/06 08:50:29;;;;;;;13.97;8.70;;;;;;;20.03;29.89;94307.28;5064880;28;20532;-75
2022/04/06 08:52:56;;;;;;;9.10;7.93;;;;;;;20.64;28.91;94295.16;5064819;28;20420;-74
2022/04/06 08:55:21;;;;;;;11.20;8.50;;;;;;;21.28;28.72;94299.09;5045088;28;20425;-75
2022/04/06 08:57:47;;;;;;;10.60;9.50;;;;;;;21.47;28.51;94293.22;5044351;28;20422;-75
2022/04/06 09:00:15;;;;;;;15.00;9.50;;;;;;;21.06;28.55;94288.75;5045055;28;20213;-75
2022/04/06 09:02:41;;;;;;;15.87;9.37;;;;;;;21.42;28.63;94294.81;5044085;28;20780;-75
2022/04/06 09:05:09;;;;;;;13.07;8.33;;;;;;;21.80;27.87;94297.88;5045478;28;20418;-75
2022/04/06 09:07:35;;;;;;;11.50;10.13;;;;;;;21.56;27.63;94287.06;5045230;28;20179;-75
2022/04/06 09:10:00;;;;;;;14.80;9.00;;;;;;;21.09;28.11;94293.53;5055622;28;20524;-75
2022/04/06 09:12:26;;;;;;;12.87;9.70;;;;;;;21.84;27.12;94290.16;5063672;28;20242;-75
2022/04/06 09:15:10;;;;;;;9.07;7.70;;;;;;;22.44;26.10;94286.63;5064105;28;20189;-75
2022/04/06 09:17:49;;;;;;;10.70;8.27;;;;;;;21.89;26.71;94289.31;5064681;28;20186;-75
2022/04/06 09:20:16;;;;;;;10.40;8.27;;;;;;;22.26;26.17;94282.75;5064414;28;20533;-75
2022/04/06 09:22:42;;;;;;;8.23;7.43;;;;;;;23.05;23.84;94270.16;5065422;28;20484;-75
2022/04/06 09:25:09;;;;;;;9.87;7.00;;;;;;;22.07;25.09;94274.59;5065191;28;20926;-75
2022/04/06 09:27:35;;;;;;;8.47;6.27;;;;;;;22.53;23.78;94279.63;5063819;28;20457;-75
2022/04/06 09:30:04;;;;;;;6.90;6.20;;;;;;;22.80;22.66;94271.13;5065139;28;20550;-75
2022/04/06 09:32:30;;;;;;;7.50;6.80;;;;;;;22.36;23.76;94267.47;5065360;28;20206;-75
2022/04/06 09:34:56;;;;;;;5.60;5.20;;;;;;;22.67;22.16;94256.59;5065653;28;20420;-75
2022/04/06 09:37:28;;;;;;;9.43;5.90;;;;;;;22.70;22.64;94256.00;5065198;28;20166;-75
2022/04/06 09:39:58;;;;;;;5.80;5.13;;;;;;;21.65;23.72;94258.00;5067853;28;20183;-74
2022/04/06 09:42:26;;;;;;;7.40;6.63;;;;;;;21.73;24.30;94256.63;5069260;28;20443;-74
2022/04/06 09:47:39;;;;;;;9.20;6.13;;;;;;;22.55;23.32;94243.59;5068736;28;20929;-76
2022/04/06 09:50:07;;;;;;;8.70;5.70;;;;;;;23.32;22.53;94242.13;5063460;28;20477;-75
2022/04/06 09:52:35;;;;;;;8.20;6.10;;;;;;;23.29;22.34;94242.66;5049328;28;20486;-75
2022/04/06 09:55:05;;;;;;;6.70;5.80;;;;;;;22.89;22.79;94233.97;5062806;28;20451;-75
2022/04/06 09:57:34;;;;;;;7.33;4.03;;;;;;;23.20;22.52;94226.47;5089539;28;20442;-75
2022/04/06 10:00:00;;;;;;;5.70;4.33;;;;;;;23.21;22.61;94227.28;5080524;28;20866;-74
2022/04/06 10:02:25;;;;;;;5.33;4.40;;;;;;;22.66;22.79;94224.84;5068506;28;20474;-75
2022/04/06 10:04:52;;;;;;;4.17;3.77;;;;;;;23.16;22.54;94226.25;5068512;28;20174;-74
2022/04/06 10:07:19;;;;;;;8.47;4.80;;;;;;;23.17;22.66;94217.16;5067105;28;20178;-75
2022/04/06 10:09:45;;;;;;;5.10;4.70;;;;;;;23.39;22.38;94213.97;5068641;28;20479;-75
2022/04/06 10:12:11;;;;;;;5.50;4.33;;;;;;;22.97;22.63;94212.00;5067230;28;20421;-75
2022/04/06 10:14:37;;;;;;;7.43;3.80;;;;;;;22.97;22.76;94206.66;5068421;28;20220;-75
2022/04/06 10:17:03;;;;;;;4.07;3.60;;;;;;;22.70;23.10;94202.66;5066840;28;20409;-75
2022/04/06 10:19:37;;;;;;;4.13;3.77;;;;;;;23.46;22.74;94197.59;5066289;28;20277;-74
2022/04/06 10:22:15;;;;;;;3.57;3.37;;;;;;;24.39;21.92;94194.44;5067413;28;20460;-75
2022/04/06 10:25:08;;;;;;;3.97;3.20;;;;;;;24.64;21.17;94195.91;5065592;28;20432;-75
2022/04/06 10:27:42;;;;;;;5.53;4.50;;;;;;;24.22;21.95;94192.28;5047363;28;20466;-75
2022/04/06 10:30:22;;;;;;;5.43;4.93;;;;;;;24.18;21.82;94191.28;5047881;28;20496;-74
2022/04/06 10:32:50;;;;;;;7.00;4.50;;;;;;;23.70;22.05;94186.09;5047905;28;20394;-76
2022/04/06 10:35:34;;;;;;;4.83;3.60;;;;;;;24.96;21.35;94180.91;5047956;28;20422;-75
2022/04/06 10:37:59;;;;;;;5.20;4.80;;;;;;;24.80;21.17;94179.63;5056411;28;20430;-75
2022/04/06 10:40:42;;;;;;;4.50;4.10;;;;;;;24.31;21.66;94173.72;5067998;28;20425;-74
2022/04/06 10:43:43;;;;;;;9.23;5.03;;;;;;;24.53;22.07;94165.88;5066423;28;20186;-75
2022/04/06 10:46:16;;;;;;;4.60;4.07;;;;;;;23.38;23.15;94174.19;5067753;28;20408;-75
2022/04/06 10:49:03;;;;;;;4.23;3.93;;;;;;;24.60;21.50;94162.03;5061175;28;20434;-75
2022/04/06 10:51:58;;;;;;;7.80;5.57;;;;;;;24.78;21.33;94155.03;5045606;28;20452;-75
2022/04/06 10:54:27;;;;;;;5.37;4.20;;;;;;;24.30;21.93;94151.53;5054120;28;20428;-74
2022/04/06 10:56:54;;;;;;;7.50;4.53;;;;;;;23.68;22.66;94156.19;5085664;28;20433;-75
2022/04/06 10:59:23;;;;;;;4.70;4.07;;;;;;;24.23;22.25;94145.75;5087391;28;20420;-74
2022/04/06 11:02:09;;;;;;;7.00;5.20;;;;;;;24.79;21.55;94148.56;5087123;28;20404;-75
2022/04/06 11:04:41;;;;;;;3.93;3.63;;;;;;;24.57;21.78;94144.69;5087166;28;20435;-75
2022/04/06 11:07:08;;;;;;;5.17;4.10;;;;;;;24.58;22.13;94140.13;5085915;28;20438;-75
2022/04/06 11:12:18;;;;;;;4.50;4.10;;;;;;;25.07;21.92;94142.13;5087744;28;20396;-76
2022/04/06 11:14:49;;;;;;;7.40;5.10;;;;;;;23.13;23.77;94140.59;5087889;28;20519;-74
2022/04/06 11:17:41;;;;;;;5.80;4.83;;;;;;;23.80;22.62;94137.88;5087644;28;20426;-75
2022/04/06 11:20:14;;;;;;;8.37;4.53;;;;;;;24.71;22.06;94129.44;5087481;28;20416;-75
2022/04/06 11:22:43;;;;;;;4.53;4.13;;;;;;;25.58;21.13;94129.59;5085057;28;20413;-75
2022/04/06 11:25:13;;;;;;;12.03;5.40;;;;;;;25.00;21.65;94125.66;5066885;28;20486;-74
2022/04/06 11:27:40;;;;;;;5.60;5.10;;;;;;;24.34;22.46;94117.75;5066717;28;20519;-75
2022/04/06 11:30:09;;;;;;;8.97;4.60;;;;;;;25.10;22.06;94109.41;5066947;28;20468;-74
2022/04/06 11:32:36;;;;;;;7.70;4.77;;;;;;;25.55;20.72;94111.44;5063507;28;20414;-74
2022/04/06 11:35:06;;;;;;;5.83;4.20;;;;;;;25.46;21.27;94110.56;5066771;28;20428;-74
2022/04/06 11:37:40;;;;;;;6.23;4.60;;;;;;;25.61;21.18;94102.22;5066555;28;20895;-74